createdAt,value
2017-04-21T00:00:31.935Z,102538.79
2017-04-21T00:01:29.813Z,102538.89
2017-04-21T00:02:27.704Z,102534.94
2017-04-21T00:03:25.547Z,102527.55
2017-04-21T00:04:23.402Z,102533.20
2017-04-21T00:05:21.273Z,102530.12
2017-04-21T00:06:19.175Z,102526.15
2017-04-21T00:07:17.080Z,102528.84
2017-04-21T00:08:15.064Z,102521.42
2017-04-21T00:09:12.952Z,102518.02
2017-04-21T00:10:10.809Z,102518.44
2017-04-21T00:11:08.708Z,102523.16
2017-04-21T00:12:06.554Z,102522.97
2017-04-21T00:13:04.564Z,102518.21
2017-04-21T00:14:02.410Z,102528.30
2017-04-21T00:15:00.331Z,102524.35
2017-04-21T00:15:58.237Z,102523.04
2017-04-21T00:16:56.110Z,102530.45
2017-04-21T00:17:53.969Z,102523.92
2017-04-21T00:18:51.899Z,102520.86
2017-04-21T00:19:49.747Z,102518.14
2017-04-21T00:20:47.635Z,102516.74
2017-04-21T00:21:45.615Z,102516.50
2017-04-21T00:22:43.454Z,102517.27
2017-04-21T00:23:41.499Z,102521.56
2017-04-21T00:24:39.402Z,102513.16
2017-04-21T00:25:37.369Z,102515.31
2017-04-21T00:26:35.233Z,102511.25
2017-04-21T00:27:33.270Z,102515.61
2017-04-21T00:28:31.128Z,102512.95
2017-04-21T00:29:28.935Z,102518.44
2017-04-21T00:30:26.739Z,102517.15
2017-04-21T00:31:24.605Z,102517.61
2017-04-21T00:32:22.492Z,102518.55
2017-04-21T00:33:20.329Z,102512.02
2017-04-21T00:34:18.380Z,102511.58
2017-04-21T00:35:16.247Z,102515.08
2017-04-21T00:36:14.096Z,102512.59
2017-04-21T00:37:11.973Z,102508.65
2017-04-21T00:38:09.851Z,102512.05
2017-04-21T00:39:07.740Z,102509.30
2017-04-21T00:40:05.657Z,102507.05
2017-04-21T00:41:03.541Z,102508.35
2017-04-21T00:42:01.414Z,102504.91
2017-04-21T00:42:59.269Z,102511.75
2017-04-21T00:43:57.156Z,102506.77
2017-04-21T00:44:55.038Z,102503.23
2017-04-21T00:45:52.888Z,102501.84
2017-04-21T00:46:50.787Z,102503.81
2017-04-21T00:47:48.645Z,102502.91
2017-04-21T00:48:46.508Z,102499.59
2017-04-21T00:49:44.350Z,102501.03
2017-04-21T00:50:42.192Z,102498.80
2017-04-21T00:51:40.044Z,102497.16
2017-04-21T00:52:37.960Z,102500.60
2017-04-21T00:53:35.857Z,102501.45
2017-04-21T00:54:33.800Z,102501.13
2017-04-21T00:55:31.616Z,102498.46
2017-04-21T00:56:29.536Z,102499.38
2017-04-21T00:57:27.420Z,102501.97
2017-04-21T00:58:25.268Z,102498.02
2017-04-21T00:59:23.232Z,102493.12
2017-04-21T01:00:21.146Z,102498.05
2017-04-21T01:01:19.055Z,102494.82
2017-04-21T01:02:17.036Z,102493.98
2017-04-21T01:03:14.929Z,102493.11
2017-04-21T01:04:12.728Z,102496.73
2017-04-21T01:05:10.708Z,102495.77
2017-04-21T01:06:08.558Z,102493.19
2017-04-21T01:07:06.419Z,102496.79
2017-04-21T01:08:04.280Z,102495.28
2017-04-21T01:09:02.184Z,102487.65
2017-04-21T01:10:00.113Z,102491.56
2017-04-21T01:10:58.024Z,102495.39
2017-04-21T01:11:55.884Z,102493.77
2017-04-21T01:12:53.776Z,102495.11
2017-04-21T01:13:51.680Z,102491.65
2017-04-21T01:14:49.493Z,102489.80
2017-04-21T01:15:47.351Z,102485.83
2017-04-21T01:16:45.233Z,102488.39
2017-04-21T01:17:43.091Z,102494.46
2017-04-21T01:18:41.019Z,102484.39
2017-04-21T01:19:38.900Z,102489.97
2017-04-21T01:20:36.715Z,102493.44
2017-04-21T01:21:34.684Z,102486.48
2017-04-21T01:22:32.528Z,102494.27
2017-04-21T01:23:30.412Z,102485.45
2017-04-21T01:24:28.272Z,102484.12
2017-04-21T01:25:26.101Z,102478.91
2017-04-21T01:26:24.048Z,102486.47
2017-04-21T01:27:21.933Z,102491.00
2017-04-21T01:28:19.837Z,102485.77
2017-04-21T01:29:17.688Z,102487.56
2017-04-21T01:30:15.625Z,102484.44
2017-04-21T01:31:13.627Z,102487.86
2017-04-21T01:32:11.482Z,102482.55
2017-04-21T01:33:09.338Z,102478.95
2017-04-21T01:34:07.167Z,102478.98
2017-04-21T01:35:05.049Z,102479.45
2017-04-21T01:36:02.935Z,102479.92
2017-04-21T01:37:00.867Z,102482.39
2017-04-21T01:37:58.724Z,102479.42
2017-04-21T01:38:56.863Z,102482.73
2017-04-21T01:39:54.809Z,102484.61
2017-04-21T01:40:52.689Z,102485.77
2017-04-21T01:41:50.524Z,102478.09
2017-04-21T01:42:48.396Z,102485.44
2017-04-21T01:43:46.233Z,102482.84
2017-04-21T01:44:44.092Z,102483.77
2017-04-21T01:45:41.960Z,102478.48
2017-04-21T01:46:39.892Z,102471.36
2017-04-21T01:47:37.741Z,102470.48
2017-04-21T01:48:35.623Z,102466.03
2017-04-21T01:49:33.513Z,102466.89
2017-04-21T01:50:31.348Z,102459.31
2017-04-21T01:51:29.156Z,102462.83
2017-04-21T01:52:27.059Z,102463.59
2017-04-21T01:53:24.920Z,102456.09
2017-04-21T01:54:22.735Z,102462.73
2017-04-21T01:55:20.600Z,102456.55
2017-04-21T01:56:18.464Z,102458.36
2017-04-21T01:57:16.396Z,102457.10
2017-04-21T01:58:15.676Z,102456.96
2017-04-21T01:59:13.526Z,102458.25
2017-04-21T02:00:11.546Z,102459.73
2017-04-21T02:11:58.387Z,102449.32
2017-04-21T02:12:56.233Z,102445.84
2017-04-21T02:13:54.144Z,102449.27
2017-04-21T02:14:51.988Z,102453.95
2017-04-21T02:15:49.788Z,102453.03
2017-04-21T02:16:47.659Z,102453.56
2017-04-21T02:17:45.535Z,102440.58
2017-04-21T02:18:43.415Z,102446.13
2017-04-21T02:19:41.243Z,102438.17
2017-04-21T02:20:39.124Z,102438.44
2017-04-21T02:21:36.999Z,102440.94
2017-04-21T02:22:34.855Z,102438.33
2017-04-21T02:23:32.804Z,102435.30
2017-04-21T02:24:30.992Z,102434.45
2017-04-21T02:25:28.814Z,102435.41
2017-04-21T02:26:26.682Z,102432.73
2017-04-21T02:27:24.505Z,102437.97
2017-04-21T02:28:22.328Z,102437.21
2017-04-21T02:29:20.155Z,102434.14
2017-04-21T02:30:17.991Z,102435.17
2017-04-21T02:31:15.826Z,102437.86
2017-04-21T02:32:13.625Z,102440.03
2017-04-21T02:33:11.572Z,102433.16
2017-04-21T02:34:09.407Z,102430.88
2017-04-21T02:35:07.347Z,102436.98
2017-04-21T02:36:05.152Z,102432.11
2017-04-21T02:37:03.097Z,102433.36
2017-04-21T02:38:00.993Z,102428.89
2017-04-21T02:38:58.793Z,102427.06
2017-04-21T02:39:56.732Z,102423.89
2017-04-21T02:40:54.566Z,102422.34
2017-04-21T02:41:52.527Z,102424.62
2017-04-21T02:42:50.462Z,102425.50
2017-04-21T02:43:48.282Z,102422.33
2017-04-21T02:44:46.148Z,102417.07
2017-04-21T02:45:44.063Z,102416.91
2017-04-21T02:46:41.963Z,102416.39
2017-04-21T02:47:39.786Z,102419.72
2017-04-21T02:48:37.654Z,102417.41
2017-04-21T02:49:35.444Z,102420.95
2017-04-21T02:50:33.507Z,102426.14
2017-04-21T02:51:31.370Z,102430.84
2017-04-21T02:52:29.288Z,102429.95
2017-04-21T02:53:27.140Z,102419.95
2017-04-21T02:54:25.031Z,102426.11
2017-04-21T02:55:22.848Z,102424.80
2017-04-21T02:56:20.723Z,102418.27
2017-04-21T02:57:18.650Z,102418.30
2017-04-21T02:58:16.527Z,102413.97
2017-04-21T02:59:14.579Z,102414.34
2017-04-21T03:00:12.475Z,102411.12
2017-04-21T03:01:10.271Z,102409.72
2017-04-21T03:02:08.126Z,102402.62
2017-04-21T03:03:05.951Z,102408.22
2017-04-21T03:04:03.924Z,102409.16
2017-04-21T03:05:01.776Z,102409.68
2017-04-21T03:05:59.596Z,102411.86
2017-04-21T03:06:57.432Z,102411.91
2017-04-21T03:07:55.284Z,102417.63
2017-04-21T03:08:53.087Z,102411.01
2017-04-21T03:09:50.855Z,102408.73
2017-04-21T03:10:48.839Z,102405.47
2017-04-21T03:11:46.692Z,102400.09
2017-04-21T03:12:44.548Z,102402.16
2017-04-21T03:13:42.459Z,102401.61
2017-04-21T03:14:40.370Z,102396.37
2017-04-21T03:15:38.184Z,102398.63
2017-04-21T03:16:36.092Z,102401.65
2017-04-21T03:17:34.035Z,102407.52
2017-04-21T03:18:31.864Z,102408.91
2017-04-21T03:19:29.741Z,102403.72
2017-04-21T03:20:27.667Z,102407.11
2017-04-21T03:21:25.544Z,102405.39
2017-04-21T03:22:23.416Z,102402.72
2017-04-21T03:23:21.252Z,102400.03
2017-04-21T03:24:19.193Z,102398.60
2017-04-21T03:25:17.061Z,102401.31
2017-04-21T03:26:14.898Z,102400.16
2017-04-21T03:27:12.793Z,102404.50
2017-04-21T03:28:10.639Z,102402.92
2017-04-21T03:29:08.539Z,102403.02
2017-04-21T03:30:06.406Z,102404.78
2017-04-21T03:31:04.368Z,102404.97
2017-04-21T03:32:02.208Z,102395.48
2017-04-21T03:33:00.030Z,102394.02
2017-04-21T03:33:57.908Z,102392.61
2017-04-21T03:34:55.724Z,102397.67
2017-04-21T03:35:53.714Z,102389.80
2017-04-21T03:36:51.541Z,102392.36
2017-04-21T03:37:49.469Z,102388.89
2017-04-21T03:38:47.369Z,102395.63
2017-04-21T03:39:45.283Z,102396.07
2017-04-21T03:40:43.122Z,102396.45
2017-04-21T03:41:40.948Z,102394.28
2017-04-21T03:42:38.859Z,102393.39
2017-04-21T03:43:36.663Z,102391.12
2017-04-21T03:44:34.671Z,102389.23
2017-04-21T03:45:32.602Z,102385.28
2017-04-21T03:46:30.468Z,102391.12
2017-04-21T03:47:28.283Z,102384.87
2017-04-21T03:48:26.121Z,102387.42
2017-04-21T03:49:24.055Z,102386.85
2017-04-21T03:50:21.882Z,102377.52
2017-04-21T03:51:19.851Z,102383.17
2017-04-21T03:52:17.732Z,102380.66
2017-04-21T03:53:15.563Z,102381.53
2017-04-21T03:54:13.492Z,102378.15
2017-04-21T03:55:11.350Z,102382.39
2017-04-21T03:56:09.237Z,102385.77
2017-04-21T03:57:07.076Z,102379.89
2017-04-21T03:58:05.046Z,102376.07
2017-04-21T03:59:02.900Z,102377.17
2017-04-21T04:00:00.727Z,102377.97
2017-04-21T04:00:58.668Z,102381.15
2017-04-21T04:01:56.523Z,102384.88
2017-04-21T04:02:54.453Z,102374.38
2017-04-21T04:03:52.256Z,102373.70
2017-04-21T04:04:50.235Z,102367.84
2017-04-21T04:05:48.066Z,102375.64
2017-04-21T04:06:45.906Z,102377.11
2017-04-21T04:07:43.786Z,102375.58
2017-04-21T04:08:41.651Z,102373.27
2017-04-21T04:09:39.579Z,102369.76
2017-04-21T04:10:37.411Z,102372.21
2017-04-21T04:11:35.488Z,102364.75
2017-04-21T04:12:33.336Z,102370.20
2017-04-21T04:13:31.167Z,102365.28
2017-04-21T04:14:29.003Z,102366.03
2017-04-21T04:15:26.847Z,102370.20
2017-04-21T04:16:24.718Z,102368.55
2017-04-21T04:17:22.629Z,102370.70
2017-04-21T04:18:20.576Z,102371.56
2017-04-21T04:19:18.376Z,102371.48
2017-04-21T04:20:16.228Z,102367.61
2017-04-21T04:21:14.133Z,102368.48
2017-04-21T04:22:11.975Z,102367.64
2017-04-21T04:23:09.999Z,102363.28
2017-04-21T04:24:07.864Z,102362.39
2017-04-21T04:25:05.845Z,102365.34
2017-04-21T04:26:03.643Z,102362.30
2017-04-21T04:27:01.477Z,102361.10
2017-04-21T04:27:59.305Z,102367.26
2017-04-21T04:28:57.115Z,102367.77
2017-04-21T04:29:55.108Z,102367.34
2017-04-21T04:30:52.931Z,102361.84
2017-04-21T04:31:50.840Z,102366.19
2017-04-21T04:32:48.729Z,102364.58
2017-04-21T04:33:46.557Z,102369.79
2017-04-21T04:34:44.859Z,102367.89
2017-04-21T04:35:42.679Z,102365.55
2017-04-21T04:36:40.529Z,102362.01
2017-04-21T04:37:38.382Z,102370.73
2017-04-21T04:38:36.220Z,102370.68
2017-04-21T04:39:34.070Z,102369.41
2017-04-21T04:40:31.898Z,102374.24
2017-04-21T04:41:29.722Z,102373.44
2017-04-21T04:42:27.549Z,102373.60
2017-04-21T04:43:25.438Z,102378.03
2017-04-21T04:44:23.276Z,102371.45
2017-04-21T04:45:21.331Z,102375.05
2017-04-21T04:46:19.160Z,102376.84
2017-04-21T04:47:17.020Z,102376.03
2017-04-21T04:48:14.901Z,102373.94
2017-04-21T04:49:12.706Z,102374.83
2017-04-21T04:50:10.705Z,102378.42
2017-04-21T04:51:08.537Z,102385.38
2017-04-21T04:52:06.484Z,102382.65
2017-04-21T04:53:04.351Z,102382.28
2017-04-21T04:54:02.262Z,102384.43
2017-04-21T04:55:00.120Z,102385.92
2017-04-21T04:55:58.013Z,102378.04
2017-04-21T04:56:55.895Z,102373.91
2017-04-21T04:57:53.692Z,102373.58
2017-04-21T04:58:51.499Z,102373.01
2017-04-21T04:59:49.334Z,102368.00
2017-04-21T05:00:47.380Z,102372.61
2017-04-21T05:01:45.233Z,102370.84
2017-04-21T05:02:43.054Z,102373.84
2017-04-21T05:03:40.989Z,102371.69
2017-04-21T05:04:38.812Z,102373.09
2017-04-21T05:05:36.734Z,102365.13
2017-04-21T05:06:34.533Z,102371.34
2017-04-21T05:07:32.564Z,102368.60
2017-04-21T05:08:30.372Z,102366.83
2017-04-21T05:09:28.191Z,102368.09
2017-04-21T05:10:26.127Z,102367.69
2017-04-21T05:11:24.005Z,102365.05
2017-04-21T05:12:21.887Z,102367.02
2017-04-21T05:13:19.682Z,102370.82
2017-04-21T05:14:17.666Z,102365.98
2017-04-21T05:15:15.588Z,102368.27
2017-04-21T05:16:15.007Z,102365.25
2017-04-21T05:17:12.819Z,102369.11
2017-04-21T05:18:10.816Z,102367.28
2017-04-21T05:19:08.631Z,102370.41
2017-04-21T05:20:06.483Z,102369.39
2017-04-21T05:21:04.281Z,102366.79
2017-04-21T05:22:02.148Z,102369.73
2017-04-21T05:22:59.973Z,102370.30
2017-04-21T05:23:57.924Z,102371.20
2017-04-21T05:24:55.749Z,102365.80
2017-04-21T05:25:53.579Z,102372.17
2017-04-21T05:26:51.482Z,102366.79
2017-04-21T05:27:49.336Z,102367.22
2017-04-21T05:28:47.297Z,102368.34
2017-04-21T05:29:45.106Z,102370.38
2017-04-21T05:30:50.827Z,102366.31
2017-04-21T05:31:48.699Z,102372.31
2017-04-21T05:32:46.580Z,102370.53
2017-04-21T05:33:44.464Z,102371.16
2017-04-21T05:34:42.361Z,102370.22
2017-04-21T05:35:40.184Z,102371.48
2017-04-21T05:36:38.139Z,102372.80
2017-04-21T05:37:37.809Z,102375.36
2017-04-21T05:38:35.712Z,102370.75
2017-04-21T05:39:33.552Z,102376.22
2017-04-21T05:40:31.379Z,102373.48
2017-04-21T05:41:29.300Z,102378.77
2017-04-21T05:42:27.165Z,102375.85
2017-04-21T05:43:24.989Z,102374.80
2017-04-21T05:44:22.772Z,102373.56
2017-04-21T05:45:20.596Z,102377.44
2017-04-21T05:46:18.389Z,102373.45
2017-04-21T05:47:16.296Z,102362.19
2017-04-21T05:48:14.137Z,102372.24
2017-04-21T05:49:12.006Z,102369.30
2017-04-21T05:50:09.859Z,102371.86
2017-04-21T05:51:07.790Z,102375.70
2017-04-21T05:52:05.627Z,102370.75
2017-04-21T05:53:03.611Z,102367.27
2017-04-21T05:54:01.432Z,102369.48
2017-04-21T05:54:59.237Z,102369.41
2017-04-21T05:55:57.178Z,102361.34
2017-04-21T05:56:55.035Z,102363.73
2017-04-21T05:57:53.005Z,102360.62
2017-04-21T05:58:50.832Z,102361.97
2017-04-21T05:59:48.783Z,102359.72
2017-04-21T06:00:46.632Z,102360.12
2017-04-21T06:01:44.480Z,102357.08
2017-04-21T06:02:42.383Z,102361.44
2017-04-21T06:03:40.273Z,102360.15
2017-04-21T06:04:38.160Z,102356.72
2017-04-21T06:05:36.057Z,102354.45
2017-04-21T06:06:33.903Z,102363.30
2017-04-21T06:07:31.747Z,102355.20
2017-04-21T06:08:29.576Z,102357.88
2017-04-21T06:09:27.503Z,102360.95
2017-04-21T06:10:25.372Z,102361.11
2017-04-21T06:11:23.277Z,102359.14
2017-04-21T06:12:21.219Z,102358.66
2017-04-21T06:13:19.173Z,102364.36
2017-04-21T06:14:17.005Z,102359.50
2017-04-21T06:15:14.874Z,102354.65
2017-04-21T06:16:12.723Z,102350.70
2017-04-21T06:17:10.557Z,102352.92
2017-04-21T06:18:08.462Z,102352.08
2017-04-21T06:19:06.342Z,102352.10
2017-04-21T06:20:04.335Z,102352.55
2017-04-21T06:21:02.192Z,102355.70
2017-04-21T06:22:00.040Z,102356.38
2017-04-21T06:22:58.010Z,102352.00
2017-04-21T06:23:55.845Z,102355.84
2017-04-21T06:24:53.701Z,102355.55
2017-04-21T06:25:51.551Z,102351.91
2017-04-21T06:26:49.508Z,102351.41
2017-04-21T06:27:47.376Z,102353.77
2017-04-21T06:28:45.228Z,102356.75
2017-04-21T06:29:43.117Z,102352.29
2017-04-21T06:30:40.957Z,102348.63
2017-04-21T06:31:38.846Z,102349.55
2017-04-21T06:32:36.692Z,102347.29
2017-04-21T06:33:34.631Z,102350.36
2017-04-21T06:34:32.520Z,102342.61
2017-04-21T06:35:30.393Z,102346.50
2017-04-21T06:36:28.303Z,102353.52
2017-04-21T06:37:26.230Z,102347.93
2017-04-21T06:38:24.094Z,102347.84
2017-04-21T06:39:22.006Z,102340.24
2017-04-21T06:40:20.174Z,102347.70
2017-04-21T06:41:19.513Z,102347.67
2017-04-21T06:42:17.556Z,102349.36
2017-04-21T06:43:23.812Z,102348.08
2017-04-21T06:44:28.286Z,102351.23
2017-04-21T06:45:26.931Z,102347.64
2017-04-21T06:46:30.435Z,102346.67
2017-04-21T06:47:29.648Z,102348.08
2017-04-21T06:48:28.783Z,102354.07
2017-04-21T06:49:27.576Z,102352.25
2017-04-21T06:50:40.918Z,102350.33
2017-04-21T06:51:39.199Z,102352.34
2017-04-21T06:52:38.401Z,102340.15
2017-04-21T06:53:36.961Z,102349.21
2017-04-21T06:54:36.195Z,102346.61
2017-04-21T06:55:39.426Z,102340.28
2017-04-21T06:56:43.348Z,102342.56
2017-04-21T06:57:41.488Z,102343.48
2017-04-21T06:58:40.439Z,102338.08
2017-04-21T06:59:38.537Z,102341.06
2017-04-21T07:00:42.660Z,102336.73
2017-04-21T07:01:41.408Z,102336.70
2017-04-21T07:02:57.403Z,102342.84
2017-04-21T07:03:56.063Z,102335.83
2017-04-21T07:04:55.680Z,102338.99
2017-04-21T07:06:01.373Z,102338.45
2017-04-21T07:07:08.704Z,102338.02
2017-04-21T07:08:13.304Z,102337.86
2017-04-21T07:09:13.952Z,102338.48
2017-04-21T07:10:12.046Z,102330.62
2017-04-21T07:11:11.347Z,102337.04
2017-04-21T07:12:09.471Z,102332.78
2017-04-21T07:13:19.847Z,102338.86
2017-04-21T07:14:19.823Z,102333.88
2017-04-21T07:15:19.701Z,102328.70
2017-04-21T07:16:19.631Z,102335.76
2017-04-21T07:17:18.896Z,102329.61
2017-04-21T07:18:22.334Z,102334.64
2017-04-21T07:19:20.446Z,102334.20
2017-04-21T07:20:19.218Z,102327.48
2017-04-21T07:21:22.679Z,102331.47
2017-04-21T07:22:21.253Z,102326.17
2017-04-21T07:23:34.022Z,102326.20
2017-04-21T07:24:32.412Z,102327.45
2017-04-21T07:25:32.401Z,102328.66
2017-04-21T07:26:40.884Z,102329.03
2017-04-21T07:27:39.636Z,102325.48
2017-04-21T07:28:38.579Z,102330.10
2017-04-21T07:29:41.676Z,102324.13
2017-04-21T07:30:41.196Z,102327.97
2017-04-21T07:31:40.944Z,102330.98
2017-04-21T07:32:39.003Z,102329.22
2017-04-21T07:33:38.387Z,102331.45
2017-04-21T07:34:37.479Z,102333.17
2017-04-21T07:36:40.061Z,102334.42
2017-04-21T07:37:40.680Z,102337.64
2017-04-21T07:38:40.414Z,102337.53
2017-04-21T07:39:40.426Z,102333.17
2017-04-21T07:40:43.776Z,102333.91
2017-04-21T07:41:58.034Z,102334.94
2017-04-21T07:42:59.290Z,102339.07
2017-04-21T07:43:57.879Z,102336.91
2017-04-21T07:44:57.236Z,102332.00
2017-04-21T07:46:00.852Z,102338.52
2017-04-21T07:46:59.535Z,102336.32
2017-04-21T07:47:58.788Z,102336.07
2017-04-21T07:48:58.293Z,102335.92
2017-04-21T07:49:57.604Z,102338.63
2017-04-21T07:50:57.383Z,102339.95
2017-04-21T07:52:01.037Z,102343.06
2017-04-21T07:53:05.295Z,102339.69
2017-04-21T07:54:06.886Z,102339.80
2017-04-21T07:55:05.664Z,102337.85
2017-04-21T07:56:05.238Z,102338.29
2017-04-21T07:57:04.200Z,102338.11
2017-04-21T07:58:03.640Z,102340.27
2017-04-21T07:59:02.511Z,102337.01
2017-04-21T08:01:20.196Z,102336.05
2017-04-21T08:01:31.431Z,102341.33
2017-04-21T08:01:58.129Z,102335.25
2017-04-21T08:02:57.057Z,102335.66
2017-04-21T08:03:55.846Z,102340.81
2017-04-21T08:04:54.389Z,102342.97
2017-04-21T08:05:52.527Z,102339.41
2017-04-21T08:06:56.441Z,102337.62
2017-04-21T08:07:55.316Z,102341.94
2017-04-21T08:08:54.071Z,102339.66
2017-04-21T08:09:53.471Z,102333.18
2017-04-21T08:10:52.728Z,102341.09
2017-04-21T08:11:53.227Z,102339.22
2017-04-21T08:12:52.591Z,102343.09
2017-04-21T08:13:51.135Z,102339.10
2017-04-21T08:14:55.675Z,102346.25
2017-04-21T08:15:59.456Z,102349.65
2017-04-21T08:17:04.351Z,102351.97
2017-04-21T08:18:02.634Z,102350.77
2017-04-21T08:19:07.463Z,102352.16
2017-04-21T08:20:12.238Z,102351.97
2017-04-21T08:21:14.619Z,102351.53
2017-04-21T08:22:13.235Z,102347.50
2017-04-21T08:23:17.524Z,102341.70
2017-04-21T08:24:17.535Z,102341.34
2017-04-21T08:25:23.441Z,102339.54
2017-04-21T08:26:27.240Z,102333.70
2017-04-21T08:27:31.003Z,102338.10
2017-04-21T08:28:29.854Z,102337.94
2017-04-21T08:29:28.888Z,102338.62
2017-04-21T08:30:32.459Z,102342.57
2017-04-21T08:31:42.548Z,102338.98
2017-04-21T08:32:41.028Z,102341.17
2017-04-21T08:33:39.308Z,102343.90
2017-04-21T08:34:37.392Z,102340.73
2017-04-21T08:35:36.062Z,102341.22
2017-04-21T08:36:39.476Z,102342.90
2017-04-21T08:37:39.040Z,102334.58
2017-04-21T08:38:42.488Z,102328.83
2017-04-21T08:39:47.020Z,102326.66
2017-04-21T08:40:45.118Z,102326.78
2017-04-21T08:41:44.604Z,102327.95
2017-04-21T08:42:43.944Z,102329.83
2017-04-21T08:43:43.619Z,102321.42
2017-04-21T08:44:43.324Z,102323.19
2017-04-21T08:45:47.403Z,102321.39
2017-04-21T08:46:51.587Z,102332.42
2017-04-21T08:47:50.325Z,102328.55
2017-04-21T08:48:48.495Z,102322.63
2017-04-21T08:49:46.704Z,102327.38
2017-04-21T08:50:50.969Z,102332.82
2017-04-21T08:51:49.901Z,102328.91
2017-04-21T08:52:48.442Z,102329.79
2017-04-21T08:53:52.868Z,102333.45
2017-04-21T08:54:57.025Z,102335.61
2017-04-21T08:55:55.775Z,102332.84
2017-04-21T08:56:55.308Z,102332.58
2017-04-21T08:57:54.021Z,102336.84
2017-04-21T08:58:53.642Z,102335.23
2017-04-21T08:59:53.016Z,102334.75
2017-04-21T09:00:57.032Z,102326.34
2017-04-21T09:02:01.963Z,102330.34
2017-04-21T09:03:00.527Z,102331.70
2017-04-21T09:03:59.480Z,102330.70
2017-04-21T09:05:00.014Z,102324.01
2017-04-21T09:05:59.289Z,102322.95
2017-04-21T09:07:03.691Z,102325.09
2017-04-21T09:08:01.815Z,102331.08
2017-04-21T09:09:06.466Z,102327.42
2017-04-21T09:10:05.198Z,102329.28
2017-04-21T09:11:05.303Z,102329.71
2017-04-21T09:12:10.619Z,102326.38
2017-04-21T09:13:09.608Z,102326.55
2017-04-21T09:14:08.699Z,102327.35
2017-04-21T09:15:12.392Z,102328.87
2017-04-21T09:16:12.114Z,102322.98
2017-04-21T09:17:11.680Z,102318.83
2017-04-21T09:18:10.153Z,102320.15
2017-04-21T09:19:08.835Z,102319.31
2017-04-21T09:20:07.177Z,102324.27
2017-04-21T09:21:05.269Z,102317.22
2017-04-21T09:22:04.013Z,102322.55
2017-04-21T09:23:02.633Z,102321.13
2017-04-21T09:24:01.274Z,102319.48
2017-04-21T09:25:00.652Z,102318.74
2017-04-21T09:26:00.220Z,102318.36
2017-04-21T09:26:59.681Z,102313.70
2017-04-21T09:27:58.829Z,102317.55
2017-04-21T09:28:57.788Z,102317.47
2017-04-21T09:29:56.718Z,102314.53
2017-04-21T09:31:02.817Z,102317.47
2017-04-21T09:31:54.620Z,102315.32
2017-04-21T09:32:52.896Z,102320.22
2017-04-21T09:33:52.445Z,102310.12
2017-04-21T09:35:34.397Z,102314.38
2017-04-21T09:35:50.293Z,102316.34
2017-04-21T09:36:49.673Z,102313.36
2017-04-21T09:37:48.526Z,102308.45
2017-04-21T09:38:47.293Z,102311.05
2017-04-21T09:39:45.517Z,102307.48
2017-04-21T09:40:50.786Z,102310.80
2017-04-21T09:41:49.526Z,102310.50
2017-04-21T09:42:54.160Z,102309.38
2017-04-21T09:43:52.890Z,102304.46
2017-04-21T09:44:52.152Z,102308.56
2017-04-21T09:45:51.769Z,102307.97
2017-04-21T09:46:51.044Z,102304.41
2017-04-21T09:47:50.087Z,102301.95
2017-04-21T09:48:48.437Z,102302.67
2017-04-21T09:49:47.083Z,102299.44
2017-04-21T09:50:45.132Z,102301.47
2017-04-21T09:53:46.274Z,102299.15
2017-04-21T09:56:04.955Z,102292.70
2017-04-21T09:56:05.052Z,102297.72
2017-04-21T09:57:02.409Z,102297.62
2017-04-21T09:58:30.465Z,102304.22
2017-04-21T09:59:53.505Z,102293.53
2017-04-21T10:01:22.007Z,102299.04
2017-04-21T10:02:28.037Z,102295.35
2017-04-21T10:03:07.834Z,102292.43
2017-04-21T10:03:46.858Z,102292.27
2017-04-21T10:04:49.197Z,102287.16
2017-04-21T10:04:53.981Z,102277.87
2017-04-21T10:06:33.789Z,102280.23
2017-04-21T10:07:29.917Z,102276.71
2017-04-21T10:07:39.271Z,102281.95
2017-04-21T10:07:42.293Z,102283.45
2017-04-21T10:08:22.015Z,102289.95
2017-04-21T10:08:28.863Z,102271.06
2017-04-21T10:09:33.857Z,102268.79
2017-04-21T10:10:38.116Z,102264.86
2017-04-21T10:11:37.162Z,102267.41
2017-04-21T10:12:35.726Z,102267.03
2017-04-21T10:13:33.970Z,102260.00
2017-04-21T10:14:32.431Z,102267.95
2017-04-21T10:15:36.144Z,102259.52
2017-04-21T10:16:40.644Z,102257.28
2017-04-21T10:17:42.821Z,102264.28
2017-04-21T10:18:40.902Z,102256.73
2017-04-21T10:19:40.412Z,102262.56
2017-04-21T10:20:45.742Z,102253.69
2017-04-21T10:21:49.649Z,102250.20
2017-04-21T10:22:48.292Z,102255.06
2017-04-21T10:23:48.005Z,102252.80
2017-04-21T10:24:47.350Z,102252.06
2017-04-21T10:25:46.292Z,102254.33
2017-04-21T10:26:46.005Z,102253.52
2017-04-21T10:27:44.593Z,102251.16
2017-04-21T10:28:43.737Z,102250.59
2017-04-21T10:29:43.081Z,102251.77
2017-04-21T10:30:41.962Z,102247.08
2017-04-21T10:31:40.647Z,102240.41
2017-04-21T10:32:39.664Z,102247.81
2017-04-21T10:33:39.056Z,102247.86
2017-04-21T10:34:38.891Z,102244.41
2017-04-21T10:35:38.843Z,102237.92
2017-04-21T10:36:37.563Z,102237.92
2017-04-21T10:37:36.632Z,102248.75
2017-04-21T10:38:36.626Z,102241.00
2017-04-21T10:39:35.268Z,102237.20
2017-04-21T10:40:34.254Z,102242.05
2017-04-21T10:41:39.409Z,102233.14
2017-04-21T10:42:37.680Z,102232.89
2017-04-21T10:43:37.980Z,102235.19
2017-04-21T10:44:41.224Z,102233.49
2017-04-21T10:45:45.179Z,102242.41
2017-04-21T10:46:44.224Z,102235.95
2017-04-21T10:47:44.297Z,102231.14
2017-04-21T10:48:43.500Z,102233.20
2017-04-21T10:49:47.881Z,102236.33
2017-04-21T10:50:51.324Z,102235.49
2017-04-21T10:51:50.652Z,102227.31
2017-04-21T10:52:55.672Z,102232.84
2017-04-21T10:53:55.189Z,102233.17
2017-04-21T10:54:53.367Z,102230.41
2017-04-21T10:55:51.752Z,102225.88
2017-04-21T10:56:50.106Z,102230.18
2017-04-21T10:57:48.713Z,102229.94
2017-04-21T10:58:47.080Z,102229.20
2017-04-21T10:59:45.220Z,102226.55
2017-04-21T11:00:43.619Z,102224.92
2017-04-21T11:01:47.637Z,102222.92
2017-04-21T11:02:47.629Z,102225.02
2017-04-21T11:03:51.393Z,102228.91
2017-04-21T11:04:49.979Z,102222.42
2017-04-21T11:05:49.109Z,102221.96
2017-04-21T11:06:47.844Z,102225.64
2017-04-21T11:07:51.289Z,102221.95
2017-04-21T11:08:49.593Z,102217.53
2017-04-21T11:09:48.580Z,102213.44
2017-04-21T11:10:56.464Z,102220.89
2017-04-21T11:11:55.867Z,102214.09
2017-04-21T11:12:55.052Z,102217.92
2017-04-21T11:13:53.421Z,102219.63
2017-04-21T11:14:52.016Z,102213.60
2017-04-21T11:15:52.103Z,102215.25
2017-04-21T11:16:51.300Z,102211.59
2017-04-21T11:17:51.546Z,102211.03
2017-04-21T11:18:50.956Z,102206.59
2017-04-21T11:19:49.515Z,102207.39
2017-04-21T11:20:48.469Z,102207.98
2017-04-21T11:21:52.337Z,102207.77
2017-04-21T11:22:54.392Z,102207.48
2017-04-21T11:23:59.845Z,102200.09
2017-04-21T11:25:00.209Z,102204.74